AIC5WE VABB-VISR
Flight info
| Callsign | AIC5WE |
|---|---|
| Flight time | 2h 43m |
| Altitude | 35000 |
| Route | ANOLI2A ISRIS Q1 OPIGI/N0449F360 DCT BUTOP A589 ASARI/N0440F350 W24 PKT/N0444F360 W24 MESAR |
| Aircraft | A21N/M-SDE2E3FGHIRWXY/LB1 |
Departure
| Time | 2026-05-04 17:13 |
|---|---|
| Airport | Chhatrapati Shivaji Maharaj International Airport (VABB) |
Arrival
| Time | 2026-05-04 19:56 |
|---|---|
| Airport | Sheikh ul Alam International Airport (VISR) |
| Time | Latitude | Longitude | Altitude | Speed | Heading |
|---|---|---|---|---|---|
| 2026-05-04 16:02 | 19.09488 | 72.87329 | 49 ft | 0 kts | 320° |
| 2026-05-04 16:02 | 19.09489 | 72.87328 | 49 ft | 0 kts | 320° |
| 2026-05-04 16:54 | 19.09483 | 72.87334 | 49 ft | 2 kts | 316° |
| 2026-05-04 16:55 | 19.09437 | 72.87379 | 49 ft | 2 kts | 319° |
| 2026-05-04 16:55 | 19.09414 | 72.87397 | 49 ft | 2 kts | 354° |
| 2026-05-04 16:56 | 19.09387 | 72.87386 | 49 ft | 2 kts | 31° |
| 2026-05-04 16:56 | 19.09380 | 72.87381 | 49 ft | 0 kts | 32° |
| 2026-05-04 17:00 | 19.09428 | 72.87446 | 49 ft | 7 kts | 83° |
| 2026-05-04 17:00 | 19.09301 | 72.87629 | 49 ft | 14 kts | 131° |
| 2026-05-04 17:01 | 19.09176 | 72.87676 | 49 ft | 8 kts | 178° |
| 2026-05-04 17:01 | 19.09149 | 72.87769 | 49 ft | 9 kts | 90° |
| 2026-05-04 17:02 | 19.09113 | 72.87805 | 49 ft | 4 kts | 177° |
| 2026-05-04 17:02 | 19.09108 | 72.87805 | 49 ft | 0 kts | 179° |
| 2026-05-04 17:04 | 19.09107 | 72.87805 | 49 ft | 0 kts | 179° |
| 2026-05-04 17:05 | 19.09091 | 72.87806 | 49 ft | 4 kts | 179° |
| 2026-05-04 17:06 | 19.09058 | 72.87862 | 49 ft | 8 kts | 91° |
| 2026-05-04 17:06 | 19.09060 | 72.87928 | 49 ft | 10 kts | 89° |
| 2026-05-04 17:07 | 19.08993 | 72.88048 | 49 ft | 3 kts | 178° |
| 2026-05-04 17:07 | 19.08991 | 72.88048 | 49 ft | 0 kts | 178° |
| 2026-05-04 17:07 | 19.08988 | 72.88048 | 49 ft | 2 kts | 178° |
| 2026-05-04 17:07 | 19.08968 | 72.88047 | 49 ft | 4 kts | 202° |
| 2026-05-04 17:08 | 19.08937 | 72.88039 | 49 ft | 6 kts | 174° |
| 2026-05-04 17:08 | 19.08888 | 72.87995 | 49 ft | 6 kts | 271° |
| 2026-05-04 17:08 | 19.08888 | 72.87984 | 49 ft | 0 kts | 269° |
| 2026-05-04 17:10 | 19.08888 | 72.87983 | 49 ft | 0 kts | 269° |
| 2026-05-04 17:12 | 19.08888 | 72.87979 | 49 ft | 4 kts | 269° |
| 2026-05-04 17:12 | 19.08868 | 72.86784 | 49 ft | 156 kts | 269° |
| 2026-05-04 17:13 | 19.08696 | 72.82245 | 936 ft | 217 kts | 265° |
| 2026-05-04 17:14 | 19.08186 | 72.78348 | 2609 ft | 208 kts | 272° |
| 2026-05-04 17:14 | 19.08355 | 72.77624 | 2895 ft | 210 kts | 287° |
| 2026-05-04 17:14 | 19.10049 | 72.75407 | 4444 ft | 219 kts | 332° |
| 2026-05-04 17:15 | 19.11529 | 72.74971 | 5262 ft | 223 kts | 347° |
| 2026-05-04 17:15 | 19.14589 | 72.74707 | 6803 ft | 221 kts | 352° |
| 2026-05-04 17:16 | 19.17704 | 72.74580 | 8317 ft | 225 kts | 352° |
| 2026-05-04 17:16 | 19.22449 | 72.74349 | 10569 ft | 232 kts | 352° |
| 2026-05-04 17:17 | 19.23682 | 72.74283 | 11143 ft | 234 kts | 352° |
| 2026-05-04 17:17 | 19.27567 | 72.74066 | 12919 ft | 240 kts | 357° |
| 2026-05-04 17:18 | 19.29254 | 72.74085 | 13675 ft | 243 kts | 2° |
| 2026-05-04 17:18 | 19.32061 | 72.74344 | 14916 ft | 249 kts | 6° |
| 2026-05-04 17:19 | 19.35527 | 72.74802 | 16416 ft | 255 kts | 7° |
| 2026-05-04 17:19 | 19.39102 | 72.75325 | 17920 ft | 263 kts | 7° |
| 2026-05-04 17:20 | 19.42816 | 72.75884 | 19075 ft | 273 kts | 6° |
| 2026-05-04 17:20 | 19.46614 | 72.76463 | 20175 ft | 280 kts | 6° |
| 2026-05-04 17:20 | 19.48548 | 72.76759 | 20727 ft | 283 kts | 6° |
| 2026-05-04 17:21 | 19.50742 | 72.77095 | 21345 ft | 286 kts | 5° |
| 2026-05-04 17:23 | 19.53268 | 72.77482 | 22050 ft | 289 kts | 5° |
| 2026-05-04 17:23 | 19.55239 | 72.77784 | 22581 ft | 292 kts | 5° |
| 2026-05-04 17:23 | 19.59390 | 72.78419 | 23524 ft | 308 kts | 5° |
| 2026-05-04 17:24 | 19.61517 | 72.78744 | 23976 ft | 316 kts | 5° |
| 2026-05-04 17:24 | 19.68352 | 72.79790 | 25092 ft | 334 kts | 5° |
| 2026-05-04 17:25 | 19.69906 | 72.80031 | 25388 ft | 333 kts | 5° |
| 2026-05-04 17:26 | 19.73012 | 72.80514 | 25993 ft | 333 kts | 5° |
| 2026-05-04 17:26 | 19.78684 | 72.81393 | 27100 ft | 338 kts | 5° |
| 2026-05-04 17:27 | 19.83616 | 72.82152 | 28043 ft | 348 kts | 5° |
| 2026-05-04 17:27 | 19.88501 | 72.82905 | 28953 ft | 357 kts | 5° |
| 2026-05-04 17:28 | 19.93474 | 72.83674 | 29880 ft | 364 kts | 5° |
| 2026-05-04 17:29 | 20.00237 | 72.84724 | 31216 ft | 368 kts | 4° |
| 2026-05-04 17:29 | 20.07854 | 72.85871 | 32717 ft | 367 kts | 3° |
| 2026-05-04 17:30 | 20.15427 | 72.86883 | 34215 ft | 361 kts | 2° |
| 2026-05-04 17:31 | 20.20467 | 72.87531 | 34676 ft | 372 kts | 2° |
| 2026-05-04 17:31 | 20.28528 | 72.88542 | 34702 ft | 409 kts | 3° |
| 2026-05-04 17:32 | 20.32310 | 72.89016 | 34702 ft | 427 kts | 2° |
| 2026-05-04 17:33 | 20.40200 | 72.90021 | 34699 ft | 443 kts | 3° |
| 2026-05-04 17:33 | 20.43276 | 72.90418 | 34699 ft | 447 kts | 3° |
| 2026-05-04 17:34 | 20.52738 | 72.91639 | 34699 ft | 463 kts | 3° |
| 2026-05-04 17:34 | 20.55950 | 72.92055 | 34698 ft | 466 kts | 3° |
| 2026-05-04 17:35 | 20.72182 | 72.94159 | 34698 ft | 473 kts | 4° |
| 2026-05-04 17:36 | 20.78800 | 72.94747 | 34699 ft | 479 kts | 1° |
| 2026-05-04 17:36 | 20.83401 | 72.94997 | 34698 ft | 482 kts | 0° |
| 2026-05-04 17:37 | 20.90172 | 72.95262 | 34698 ft | 486 kts | 359° |
| 2026-05-04 17:37 | 20.96953 | 72.95480 | 34698 ft | 488 kts | 359° |
| 2026-05-04 17:38 | 21.02649 | 72.95656 | 34698 ft | 489 kts | 359° |
| 2026-05-04 17:38 | 21.09470 | 72.95875 | 34698 ft | 489 kts | 359° |
| 2026-05-04 17:39 | 21.19663 | 72.96821 | 34698 ft | 493 kts | 9° |
| 2026-05-04 17:39 | 21.26267 | 72.98779 | 34700 ft | 494 kts | 15° |
| 2026-05-04 17:40 | 21.32767 | 73.01193 | 34725 ft | 493 kts | 15° |
| 2026-05-04 17:40 | 21.39211 | 73.03752 | 34730 ft | 492 kts | 15° |
| 2026-05-04 17:41 | 21.44030 | 73.05693 | 34730 ft | 491 kts | 15° |
| 2026-05-04 17:41 | 21.46586 | 73.06722 | 34731 ft | 491 kts | 15° |
| 2026-05-04 17:42 | 21.52386 | 73.09050 | 34731 ft | 490 kts | 15° |
| 2026-05-04 17:42 | 21.58787 | 73.11600 | 34731 ft | 490 kts | 15° |
| 2026-05-04 17:43 | 21.65201 | 73.14137 | 34731 ft | 490 kts | 15° |
| 2026-05-04 17:43 | 21.70354 | 73.16165 | 34731 ft | 490 kts | 15° |
| 2026-05-04 17:44 | 21.73687 | 73.17472 | 34732 ft | 489 kts | 15° |
| 2026-05-04 17:44 | 21.80078 | 73.19974 | 34733 ft | 489 kts | 14° |
| 2026-05-04 17:45 | 21.86453 | 73.22465 | 34732 ft | 489 kts | 14° |
| 2026-05-04 17:45 | 21.92300 | 73.24748 | 34733 ft | 489 kts | 14° |
| 2026-05-04 17:46 | 21.98061 | 73.26995 | 34732 ft | 489 kts | 14° |
| 2026-05-04 17:46 | 22.03912 | 73.29277 | 34734 ft | 491 kts | 14° |
| 2026-05-04 17:47 | 22.10424 | 73.31817 | 34735 ft | 492 kts | 14° |
| 2026-05-04 17:47 | 22.16874 | 73.34336 | 34735 ft | 492 kts | 14° |
| 2026-05-04 17:48 | 22.21778 | 73.36253 | 34735 ft | 492 kts | 14° |
| 2026-05-04 17:48 | 22.28316 | 73.38811 | 34737 ft | 492 kts | 14° |
| 2026-05-04 17:49 | 22.34582 | 73.41265 | 34737 ft | 493 kts | 14° |
| 2026-05-04 17:49 | 22.41120 | 73.43825 | 34738 ft | 491 kts | 16° |
| 2026-05-04 17:50 | 22.47506 | 73.46332 | 34737 ft | 485 kts | 16° |
| 2026-05-04 17:50 | 22.53849 | 73.48828 | 34733 ft | 483 kts | 15° |
| 2026-05-04 17:51 | 22.60144 | 73.51304 | 34731 ft | 483 kts | 15° |
| 2026-05-04 17:51 | 22.66392 | 73.53762 | 34731 ft | 483 kts | 15° |
| 2026-05-04 17:52 | 22.71993 | 73.55968 | 34731 ft | 483 kts | 15° |
| 2026-05-04 17:52 | 22.78425 | 73.58504 | 34731 ft | 484 kts | 15° |
| 2026-05-04 17:53 | 22.84869 | 73.61043 | 34732 ft | 484 kts | 15° |
| 2026-05-04 17:53 | 22.91284 | 73.63572 | 34733 ft | 484 kts | 15° |
| 2026-05-04 17:54 | 22.97889 | 73.66178 | 34733 ft | 484 kts | 15° |
| 2026-05-04 17:54 | 23.04236 | 73.68687 | 34734 ft | 485 kts | 15° |
| 2026-05-04 17:55 | 23.10825 | 73.71295 | 34734 ft | 485 kts | 15° |
| 2026-05-04 17:55 | 23.16316 | 73.73470 | 34735 ft | 485 kts | 15° |
| 2026-05-04 17:56 | 23.22633 | 73.75976 | 34736 ft | 486 kts | 15° |
| 2026-05-04 17:56 | 23.29135 | 73.78558 | 34737 ft | 486 kts | 15° |
| 2026-05-04 17:57 | 23.35616 | 73.81134 | 34738 ft | 487 kts | 15° |
| 2026-05-04 17:57 | 23.42054 | 73.83697 | 34739 ft | 487 kts | 15° |
| 2026-05-04 17:58 | 23.48404 | 73.86228 | 34740 ft | 489 kts | 14° |
| 2026-05-04 17:58 | 23.54787 | 73.88772 | 34741 ft | 492 kts | 15° |
| 2026-05-04 17:59 | 23.61356 | 73.91392 | 34747 ft | 494 kts | 15° |
| 2026-05-04 18:00 | 23.70722 | 73.95139 | 34832 ft | 494 kts | 15° |
| 2026-05-04 18:00 | 23.75021 | 73.96861 | 34849 ft | 494 kts | 15° |
| 2026-05-04 18:01 | 23.81202 | 73.99340 | 34863 ft | 493 kts | 15° |
| 2026-05-04 18:01 | 23.85820 | 74.01193 | 34868 ft | 493 kts | 15° |
| 2026-05-04 18:02 | 23.95297 | 74.05003 | 34879 ft | 492 kts | 15° |
| 2026-05-04 18:02 | 24.00878 | 74.07250 | 34880 ft | 492 kts | 15° |
| 2026-05-04 18:03 | 24.07396 | 74.09867 | 34879 ft | 491 kts | 15° |
| 2026-05-04 18:03 | 24.11730 | 74.11607 | 34884 ft | 491 kts | 15° |
| 2026-05-04 18:04 | 24.16312 | 74.13446 | 34889 ft | 491 kts | 15° |
| 2026-05-04 18:05 | 24.27398 | 74.17905 | 34891 ft | 490 kts | 15° |
| 2026-05-04 18:05 | 24.33981 | 74.20560 | 34898 ft | 490 kts | 14° |
| 2026-05-04 18:06 | 24.43573 | 74.24445 | 34898 ft | 481 kts | 14° |
| 2026-05-04 18:06 | 24.48800 | 74.26566 | 34901 ft | 478 kts | 14° |
| 2026-05-04 18:07 | 24.55399 | 74.29242 | 34900 ft | 476 kts | 14° |
| 2026-05-04 18:07 | 24.61813 | 74.31844 | 34896 ft | 475 kts | 14° |
| 2026-05-04 18:08 | 24.67375 | 74.34101 | 34898 ft | 474 kts | 14° |
| 2026-05-04 18:08 | 24.73650 | 74.36650 | 34897 ft | 474 kts | 14° |
| 2026-05-04 18:09 | 24.86122 | 74.41728 | 34897 ft | 474 kts | 14° |
| 2026-05-04 18:10 | 24.92550 | 74.44351 | 34896 ft | 474 kts | 14° |
| 2026-05-04 18:10 | 24.97958 | 74.46556 | 34873 ft | 479 kts | 16° |
| 2026-05-04 18:11 | 25.04315 | 74.49149 | 34868 ft | 488 kts | 16° |
| 2026-05-04 18:11 | 25.09609 | 74.51319 | 34867 ft | 492 kts | 17° |
| 2026-05-04 18:12 | 25.16100 | 74.53986 | 34866 ft | 494 kts | 16° |
| 2026-05-04 18:12 | 25.22564 | 74.56643 | 34864 ft | 496 kts | 16° |
| 2026-05-04 18:13 | 25.29052 | 74.59314 | 34863 ft | 497 kts | 16° |
| 2026-05-04 18:14 | 25.37778 | 74.62913 | 34871 ft | 496 kts | 16° |
| 2026-05-04 18:14 | 25.44251 | 74.65587 | 34873 ft | 495 kts | 16° |
| 2026-05-04 18:15 | 25.56830 | 74.70794 | 34875 ft | 495 kts | 16° |
| 2026-05-04 18:16 | 25.63292 | 74.73474 | 34875 ft | 495 kts | 16° |
| 2026-05-04 18:16 | 25.69677 | 74.76125 | 34875 ft | 495 kts | 16° |
| 2026-05-04 18:17 | 25.79468 | 74.80194 | 34875 ft | 496 kts | 16° |
| 2026-05-04 18:18 | 25.88681 | 74.84032 | 34875 ft | 496 kts | 16° |
| 2026-05-04 18:18 | 25.95181 | 74.86745 | 34875 ft | 496 kts | 16° |
| 2026-05-04 18:19 | 26.04884 | 74.90801 | 34875 ft | 496 kts | 16° |
| 2026-05-04 18:19 | 26.11384 | 74.93523 | 34875 ft | 496 kts | 16° |
| 2026-05-04 18:20 | 26.17865 | 74.96246 | 34875 ft | 492 kts | 14° |
| 2026-05-04 18:20 | 26.24275 | 74.98931 | 34875 ft | 486 kts | 14° |
| 2026-05-04 18:21 | 26.30595 | 75.01573 | 34875 ft | 483 kts | 14° |
| 2026-05-04 18:21 | 26.36859 | 75.04189 | 34875 ft | 482 kts | 14° |
| 2026-05-04 18:22 | 26.43128 | 75.06810 | 34875 ft | 480 kts | 14° |
| 2026-05-04 18:22 | 26.49444 | 75.09450 | 34875 ft | 480 kts | 14° |
| 2026-05-04 18:23 | 26.55652 | 75.12047 | 34873 ft | 481 kts | 15° |
| 2026-05-04 18:23 | 26.61902 | 75.14659 | 34875 ft | 486 kts | 15° |
| 2026-05-04 18:24 | 26.68271 | 75.17333 | 34875 ft | 489 kts | 16° |
| 2026-05-04 18:24 | 26.74712 | 75.20038 | 34875 ft | 491 kts | 16° |
| 2026-05-04 18:25 | 26.81106 | 75.22725 | 34875 ft | 492 kts | 16° |
| 2026-05-04 18:25 | 26.87548 | 75.25437 | 34875 ft | 492 kts | 16° |
| 2026-05-04 18:26 | 26.94002 | 75.28161 | 34875 ft | 492 kts | 15° |
| 2026-05-04 18:26 | 27.00398 | 75.30865 | 34875 ft | 492 kts | 16° |
| 2026-05-04 18:27 | 27.05773 | 75.33140 | 34875 ft | 492 kts | 16° |
| 2026-05-04 18:27 | 27.12161 | 75.35841 | 34875 ft | 492 kts | 15° |
| 2026-05-04 18:28 | 27.18601 | 75.38546 | 34874 ft | 490 kts | 13° |
| 2026-05-04 18:28 | 27.25218 | 75.40017 | 34878 ft | 481 kts | 1° |
| 2026-05-04 18:29 | 27.31894 | 75.40415 | 34877 ft | 479 kts | 355° |
| 2026-05-04 18:29 | 27.38592 | 75.40425 | 34876 ft | 482 kts | 353° |
| 2026-05-04 18:30 | 25.04315 | 74.49149 | 34867 ft | 488 kts | 16° |
| 2026-05-04 18:31 | 25.05118 | 74.49479 | 34862 ft | 484 kts | 15° |
| 2026-05-04 18:31 | 25.09858 | 74.51439 | 34860 ft | 485 kts | 16° |
| 2026-05-04 18:32 | 25.15025 | 74.53563 | 34865 ft | 486 kts | 16° |
| 2026-05-04 18:32 | 25.21152 | 74.56080 | 34864 ft | 485 kts | 16° |
| 2026-05-04 18:33 | 25.27511 | 74.58694 | 34863 ft | 484 kts | 16° |
| 2026-05-04 18:33 | 25.33797 | 74.61282 | 34867 ft | 483 kts | 16° |
| 2026-05-04 18:34 | 25.40118 | 74.63889 | 34872 ft | 483 kts | 16° |
| 2026-05-04 18:34 | 25.46444 | 74.66501 | 34874 ft | 482 kts | 16° |
| 2026-05-04 18:35 | 25.52730 | 74.69104 | 34876 ft | 480 kts | 14° |
| 2026-05-04 18:35 | 25.59014 | 74.71716 | 34875 ft | 475 kts | 14° |
| 2026-05-04 18:36 | 25.65240 | 74.74301 | 34874 ft | 472 kts | 14° |
| 2026-05-04 18:36 | 25.71394 | 74.76856 | 34874 ft | 471 kts | 14° |
| 2026-05-04 18:37 | 25.77554 | 74.79413 | 34874 ft | 470 kts | 14° |
| 2026-05-04 18:37 | 25.83811 | 74.82014 | 34875 ft | 470 kts | 14° |
| 2026-05-04 18:38 | 25.90024 | 74.84600 | 34875 ft | 469 kts | 14° |
| 2026-05-04 18:38 | 25.96237 | 74.87191 | 34875 ft | 469 kts | 14° |
| 2026-05-04 18:39 | 26.02331 | 74.89734 | 34875 ft | 472 kts | 14° |
| 2026-05-04 18:39 | 26.07597 | 74.91933 | 34875 ft | 474 kts | 14° |
| 2026-05-04 18:40 | 26.13762 | 74.94516 | 34875 ft | 475 kts | 14° |
| 2026-05-04 18:40 | 26.19928 | 74.97097 | 34875 ft | 476 kts | 14° |
| 2026-05-04 18:41 | 26.26327 | 74.99771 | 34875 ft | 476 kts | 14° |
| 2026-05-04 18:41 | 26.28616 | 75.00728 | 34875 ft | 476 kts | 14° |
| 2026-05-04 18:42 | 26.35856 | 75.03758 | 34875 ft | 476 kts | 14° |
| 2026-05-04 18:42 | 26.39714 | 75.05371 | 34873 ft | 478 kts | 16° |
| 2026-05-04 18:43 | 26.45441 | 75.07765 | 34875 ft | 483 kts | 15° |
| 2026-05-04 18:43 | 26.51002 | 75.10090 | 34875 ft | 486 kts | 15° |
| 2026-05-04 18:44 | 26.55567 | 75.12002 | 34875 ft | 487 kts | 15° |
| 2026-05-04 18:44 | 26.61990 | 75.14699 | 34875 ft | 487 kts | 16° |
| 2026-05-04 18:45 | 26.67771 | 75.17131 | 34875 ft | 488 kts | 16° |
| 2026-05-04 18:45 | 26.74140 | 75.19806 | 34875 ft | 488 kts | 15° |
| 2026-05-04 18:46 | 26.80426 | 75.22447 | 34875 ft | 488 kts | 15° |
| 2026-05-04 18:46 | 26.86971 | 75.25199 | 34875 ft | 488 kts | 16° |
| 2026-05-04 18:47 | 26.93280 | 75.27859 | 34875 ft | 488 kts | 15° |
| 2026-05-04 18:47 | 26.99695 | 75.30568 | 34875 ft | 488 kts | 15° |
| 2026-05-04 18:48 | 27.06108 | 75.33281 | 34875 ft | 488 kts | 15° |
| 2026-05-04 18:48 | 27.11467 | 75.35547 | 34875 ft | 488 kts | 15° |
| 2026-05-04 18:49 | 27.17829 | 75.38239 | 34875 ft | 487 kts | 15° |
| 2026-05-04 18:49 | 27.24362 | 75.39886 | 34877 ft | 477 kts | 1° |
| 2026-05-04 18:50 | 27.31025 | 75.40356 | 34878 ft | 474 kts | 356° |
| 2026-05-04 18:50 | 27.37628 | 75.40397 | 34876 ft | 472 kts | 353° |
| 2026-05-04 18:51 | 27.43949 | 75.40314 | 34875 ft | 470 kts | 353° |
| 2026-05-04 18:51 | 27.50873 | 75.40200 | 34875 ft | 470 kts | 353° |
| 2026-05-04 18:52 | 27.57481 | 75.40105 | 34875 ft | 470 kts | 353° |
| 2026-05-04 18:52 | 27.64224 | 75.40032 | 34875 ft | 469 kts | 353° |
| 2026-05-04 18:53 | 27.70737 | 75.39981 | 34875 ft | 469 kts | 353° |
| 2026-05-04 18:53 | 27.77396 | 75.39946 | 34875 ft | 469 kts | 353° |
| 2026-05-04 18:54 | 27.82622 | 75.39927 | 34875 ft | 469 kts | 353° |
| 2026-05-04 18:54 | 27.89094 | 75.39910 | 34875 ft | 469 kts | 353° |
| 2026-05-04 18:55 | 27.95665 | 75.39899 | 34875 ft | 469 kts | 353° |
| 2026-05-04 18:55 | 28.05573 | 75.39889 | 34875 ft | 469 kts | 353° |
| 2026-05-04 18:56 | 28.11008 | 75.39886 | 34875 ft | 470 kts | 353° |
| 2026-05-04 18:56 | 28.17573 | 75.39883 | 34875 ft | 470 kts | 353° |
| 2026-05-04 18:57 | 28.24235 | 75.39881 | 34875 ft | 471 kts | 353° |
| 2026-05-04 18:57 | 28.30854 | 75.39879 | 34875 ft | 471 kts | 353° |
| 2026-05-04 18:58 | 28.37293 | 75.39879 | 34875 ft | 471 kts | 353° |
| 2026-05-04 18:58 | 28.43998 | 75.39879 | 34875 ft | 471 kts | 353° |
| 2026-05-04 18:59 | 28.50571 | 75.39878 | 34879 ft | 471 kts | 355° |
| 2026-05-04 18:59 | 28.57128 | 75.39874 | 34898 ft | 473 kts | 355° |
| 2026-05-04 19:00 | 28.63675 | 75.39871 | 34901 ft | 475 kts | 355° |
| 2026-05-04 19:00 | 28.70275 | 75.39872 | 34902 ft | 476 kts | 355° |
| 2026-05-04 19:01 | 28.76959 | 75.39874 | 34902 ft | 477 kts | 355° |
| 2026-05-04 19:01 | 28.83562 | 75.39877 | 34903 ft | 477 kts | 355° |
| 2026-05-04 19:02 | 28.90206 | 75.39880 | 34904 ft | 476 kts | 355° |
| 2026-05-04 19:02 | 28.96859 | 75.39882 | 34904 ft | 475 kts | 355° |
| 2026-05-04 19:03 | 29.03489 | 75.39883 | 34904 ft | 475 kts | 355° |
| 2026-05-04 19:03 | 29.10155 | 75.39883 | 34904 ft | 475 kts | 355° |
| 2026-05-04 19:04 | 29.16708 | 75.39883 | 34904 ft | 475 kts | 355° |
| 2026-05-04 19:04 | 29.23370 | 75.39884 | 34904 ft | 475 kts | 355° |
| 2026-05-04 19:05 | 29.30032 | 75.39858 | 34904 ft | 474 kts | 353° |
| 2026-05-04 19:05 | 29.36591 | 75.39314 | 34907 ft | 472 kts | 349° |
| 2026-05-04 19:06 | 29.43141 | 75.38402 | 34905 ft | 471 kts | 347° |
| 2026-05-04 19:06 | 29.49697 | 75.37354 | 34904 ft | 471 kts | 347° |
| 2026-05-04 19:07 | 29.56238 | 75.36267 | 34904 ft | 470 kts | 347° |
| 2026-05-04 19:07 | 29.62731 | 75.35184 | 34904 ft | 469 kts | 347° |
| 2026-05-04 19:08 | 29.69256 | 75.34099 | 34904 ft | 471 kts | 347° |
| 2026-05-04 19:08 | 29.73141 | 75.33456 | 34905 ft | 470 kts | 347° |
| 2026-05-04 19:09 | 29.79446 | 75.32419 | 34885 ft | 468 kts | 347° |
| 2026-05-04 19:09 | 29.85907 | 75.31360 | 34877 ft | 468 kts | 347° |
| 2026-05-04 19:10 | 29.87949 | 75.31026 | 34876 ft | 468 kts | 347° |
| 2026-05-04 19:10 | 29.91917 | 75.30377 | 34875 ft | 468 kts | 347° |
| 2026-05-04 19:11 | 29.98327 | 75.29330 | 34875 ft | 468 kts | 347° |
| 2026-05-04 19:11 | 30.04838 | 75.28267 | 34875 ft | 468 kts | 347° |
| 2026-05-04 19:12 | 30.14505 | 75.26689 | 34875 ft | 467 kts | 347° |
| 2026-05-04 19:13 | 30.21082 | 75.25614 | 34875 ft | 467 kts | 347° |
| 2026-05-04 19:13 | 30.27505 | 75.24564 | 34875 ft | 467 kts | 347° |
| 2026-05-04 19:14 | 30.33962 | 75.23505 | 34875 ft | 467 kts | 347° |
| 2026-05-04 19:14 | 30.40446 | 75.22440 | 34875 ft | 468 kts | 347° |
| 2026-05-04 19:15 | 30.46878 | 75.21385 | 34875 ft | 468 kts | 347° |
| 2026-05-04 19:15 | 30.53366 | 75.20319 | 34875 ft | 469 kts | 347° |
| 2026-05-04 19:16 | 30.59752 | 75.19269 | 34875 ft | 468 kts | 347° |
| 2026-05-04 19:16 | 30.66236 | 75.18202 | 34875 ft | 468 kts | 347° |
| 2026-05-04 19:17 | 30.72692 | 75.17137 | 34875 ft | 468 kts | 347° |
| 2026-05-04 19:17 | 30.79219 | 75.16348 | 34875 ft | 473 kts | 356° |
| 2026-05-04 19:18 | 30.85831 | 75.17259 | 34881 ft | 480 kts | 7° |
| 2026-05-04 19:18 | 30.92216 | 75.19070 | 34881 ft | 483 kts | 11° |
| 2026-05-04 19:19 | 30.98732 | 75.21295 | 34885 ft | 484 kts | 12° |
| 2026-05-04 19:19 | 31.05072 | 75.23558 | 34887 ft | 484 kts | 12° |
| 2026-05-04 19:20 | 31.10352 | 75.25434 | 34886 ft | 485 kts | 12° |
| 2026-05-04 19:20 | 31.16870 | 75.27700 | 34888 ft | 486 kts | 11° |
| 2026-05-04 19:21 | 31.22258 | 75.29526 | 34889 ft | 487 kts | 11° |
| 2026-05-04 19:21 | 31.29027 | 75.31769 | 34889 ft | 488 kts | 11° |
| 2026-05-04 19:22 | 31.35651 | 75.33941 | 34889 ft | 488 kts | 11° |
| 2026-05-04 19:22 | 31.42177 | 75.36077 | 34889 ft | 488 kts | 11° |
| 2026-05-04 19:23 | 31.48778 | 75.38242 | 34890 ft | 488 kts | 11° |
| 2026-05-04 19:23 | 31.55260 | 75.40375 | 34890 ft | 487 kts | 10° |
| 2026-05-04 19:24 | 31.60863 | 75.42225 | 34890 ft | 486 kts | 10° |
| 2026-05-04 19:24 | 31.67185 | 75.44317 | 34890 ft | 485 kts | 11° |
| 2026-05-04 19:25 | 31.73685 | 75.46471 | 34890 ft | 485 kts | 11° |
| 2026-05-04 19:25 | 31.78714 | 75.48141 | 34890 ft | 485 kts | 11° |
| 2026-05-04 19:26 | 31.85161 | 75.50291 | 34890 ft | 484 kts | 11° |
| 2026-05-04 19:26 | 31.91637 | 75.52509 | 34890 ft | 485 kts | 11° |
| 2026-05-04 19:27 | 31.98157 | 75.54792 | 34891 ft | 485 kts | 11° |
| 2026-05-04 19:27 | 32.04709 | 75.57111 | 34891 ft | 485 kts | 11° |
| 2026-05-04 19:28 | 32.11175 | 75.59411 | 34891 ft | 485 kts | 12° |
| 2026-05-04 19:28 | 32.17580 | 75.61696 | 34891 ft | 485 kts | 12° |
| 2026-05-04 19:29 | 32.24212 | 75.62898 | 34893 ft | 470 kts | 353° |
| 2026-05-04 19:29 | 32.30559 | 75.61883 | 34767 ft | 447 kts | 343° |
| 2026-05-04 19:29 | 32.33532 | 75.61043 | 34302 ft | 432 kts | 340° |
| 2026-05-04 19:30 | 32.36394 | 75.60109 | 33730 ft | 422 kts | 339° |
| 2026-05-04 19:30 | 32.39173 | 75.59135 | 33135 ft | 412 kts | 339° |
| 2026-05-04 19:30 | 32.41879 | 75.58158 | 32537 ft | 404 kts | 338° |
| 2026-05-04 19:30 | 32.44540 | 75.57193 | 31936 ft | 396 kts | 339° |
| 2026-05-04 19:31 | 32.47169 | 75.56248 | 31331 ft | 389 kts | 339° |
| 2026-05-04 19:31 | 32.49743 | 75.55339 | 30730 ft | 383 kts | 339° |
| 2026-05-04 19:31 | 32.52283 | 75.54459 | 30128 ft | 377 kts | 340° |
| 2026-05-04 19:31 | 32.54788 | 75.53609 | 29494 ft | 372 kts | 340° |
| 2026-05-04 19:32 | 32.57277 | 75.52777 | 28788 ft | 370 kts | 340° |
| 2026-05-04 19:32 | 32.59773 | 75.51955 | 28060 ft | 368 kts | 340° |
| 2026-05-04 19:32 | 32.62235 | 75.51154 | 27337 ft | 366 kts | 341° |
| 2026-05-04 19:32 | 32.64694 | 75.50363 | 26608 ft | 363 kts | 341° |
| 2026-05-04 19:33 | 32.67121 | 75.49587 | 25884 ft | 360 kts | 341° |
| 2026-05-04 19:33 | 32.69541 | 75.48818 | 25156 ft | 357 kts | 341° |
| 2026-05-04 19:33 | 32.71926 | 75.48064 | 24433 ft | 354 kts | 341° |
| 2026-05-04 19:33 | 32.74301 | 75.47316 | 23707 ft | 352 kts | 341° |
| 2026-05-04 19:34 | 32.76642 | 75.46579 | 22987 ft | 349 kts | 341° |
| 2026-05-04 19:34 | 32.78982 | 75.45842 | 22261 ft | 346 kts | 341° |
| 2026-05-04 19:34 | 32.81301 | 75.45111 | 21536 ft | 344 kts | 341° |
| 2026-05-04 19:34 | 32.83610 | 75.44383 | 20809 ft | 341 kts | 341° |
| 2026-05-04 19:35 | 32.85892 | 75.43663 | 20084 ft | 338 kts | 340° |
| 2026-05-04 19:35 | 32.88163 | 75.42946 | 19356 ft | 335 kts | 340° |
| 2026-05-04 19:35 | 32.90413 | 75.42234 | 18629 ft | 333 kts | 340° |
| 2026-05-04 19:35 | 32.92613 | 75.41537 | 17958 ft | 331 kts | 340° |
| 2026-05-04 19:36 | 32.94770 | 75.40859 | 17791 ft | 313 kts | 340° |
| 2026-05-04 19:36 | 32.96187 | 75.40413 | 17506 ft | 311 kts | 340° |
| 2026-05-04 19:36 | 32.96799 | 75.40219 | 17392 ft | 309 kts | 340° |
| 2026-05-04 19:36 | 32.98555 | 75.39660 | 17077 ft | 305 kts | 341° |
| 2026-05-04 19:37 | 33.00588 | 75.39011 | 16675 ft | 306 kts | 341° |
| 2026-05-04 19:37 | 33.02123 | 75.38519 | 16391 ft | 305 kts | 342° |
| 2026-05-04 19:37 | 33.03197 | 75.38176 | 16191 ft | 305 kts | 342° |
| 2026-05-04 19:37 | 33.05236 | 75.37524 | 15816 ft | 304 kts | 342° |
| 2026-05-04 19:38 | 33.07251 | 75.36880 | 15444 ft | 303 kts | 342° |
| 2026-05-04 19:38 | 33.09324 | 75.36219 | 15061 ft | 301 kts | 342° |
| 2026-05-04 19:38 | 33.11305 | 75.35587 | 14693 ft | 300 kts | 342° |
| 2026-05-04 19:38 | 33.13330 | 75.34941 | 14275 ft | 300 kts | 342° |
| 2026-05-04 19:39 | 33.15350 | 75.34297 | 13850 ft | 300 kts | 343° |
| 2026-05-04 19:39 | 33.17376 | 75.33650 | 13423 ft | 301 kts | 343° |
| 2026-05-04 19:39 | 33.19376 | 75.33011 | 13002 ft | 300 kts | 343° |
| 2026-05-04 19:39 | 33.21389 | 75.32368 | 12576 ft | 298 kts | 344° |
| 2026-05-04 19:40 | 33.23403 | 75.31724 | 12140 ft | 297 kts | 344° |
| 2026-05-04 19:40 | 33.25260 | 75.31132 | 11737 ft | 295 kts | 345° |
| 2026-05-04 19:40 | 33.27236 | 75.30501 | 11317 ft | 293 kts | 345° |
| 2026-05-04 19:40 | 33.29170 | 75.29883 | 10902 ft | 291 kts | 345° |
| 2026-05-04 19:41 | 33.31124 | 75.29258 | 10480 ft | 289 kts | 345° |
| 2026-05-04 19:41 | 33.33083 | 75.28768 | 10128 ft | 284 kts | 355° |
| 2026-05-04 19:41 | 33.34968 | 75.28815 | 10442 ft | 250 kts | 359° |
| 2026-05-04 19:41 | 33.36563 | 75.28419 | 11093 ft | 231 kts | 342° |
| 2026-05-04 19:42 | 33.38162 | 75.27695 | 11241 ft | 263 kts | 339° |
| 2026-05-04 19:42 | 33.39321 | 75.27153 | 11076 ft | 270 kts | 339° |
| 2026-05-04 19:42 | 33.41636 | 75.26136 | 11004 ft | 264 kts | 341° |
| 2026-05-04 19:42 | 33.42799 | 75.25666 | 11000 ft | 263 kts | 342° |
| 2026-05-04 19:43 | 33.45132 | 75.24800 | 10965 ft | 268 kts | 344° |
| 2026-05-04 19:43 | 33.46339 | 75.24383 | 10987 ft | 268 kts | 345° |
| 2026-05-04 19:43 | 33.48651 | 75.23331 | 10912 ft | 271 kts | 335° |
| 2026-05-04 19:43 | 33.50320 | 75.22219 | 10669 ft | 276 kts | 329° |
| 2026-05-04 19:44 | 33.51947 | 75.20963 | 10376 ft | 280 kts | 327° |
| 2026-05-04 19:44 | 33.53563 | 75.19614 | 9955 ft | 285 kts | 325° |
| 2026-05-04 19:44 | 33.55166 | 75.18212 | 9581 ft | 287 kts | 324° |
| 2026-05-04 19:44 | 33.56231 | 75.17260 | 9327 ft | 287 kts | 323° |
| 2026-05-04 19:45 | 33.57828 | 75.15813 | 8963 ft | 289 kts | 323° |
| 2026-05-04 19:45 | 33.59435 | 75.14341 | 8579 ft | 290 kts | 323° |
| 2026-05-04 19:45 | 33.61031 | 75.12867 | 8293 ft | 285 kts | 323° |
| 2026-05-04 19:45 | 33.62564 | 75.11446 | 8064 ft | 272 kts | 323° |
| 2026-05-04 19:46 | 33.64024 | 75.10090 | 7805 ft | 261 kts | 323° |
| 2026-05-04 19:46 | 33.65538 | 75.08975 | 7549 ft | 248 kts | 335° |
| 2026-05-04 19:46 | 33.67104 | 75.08272 | 7409 ft | 231 kts | 341° |
| 2026-05-04 19:46 | 33.68572 | 75.07701 | 7251 ft | 216 kts | 343° |
| 2026-05-04 19:47 | 33.69946 | 75.07163 | 7101 ft | 201 kts | 342° |
| 2026-05-04 19:47 | 33.71232 | 75.06631 | 6990 ft | 190 kts | 341° |
| 2026-05-04 19:47 | 33.72431 | 75.06092 | 6942 ft | 176 kts | 339° |
| 2026-05-04 19:47 | 33.73527 | 75.05492 | 7077 ft | 174 kts | 334° |
| 2026-05-04 19:48 | 33.74616 | 75.04721 | 7024 ft | 186 kts | 328° |
| 2026-05-04 19:48 | 33.75667 | 75.03797 | 7001 ft | 188 kts | 323° |
| 2026-05-04 19:48 | 33.76682 | 75.02789 | 6992 ft | 189 kts | 320° |
| 2026-05-04 19:48 | 33.77667 | 75.01740 | 6990 ft | 190 kts | 318° |
| 2026-05-04 19:49 | 33.78640 | 75.00663 | 6987 ft | 190 kts | 317° |
| 2026-05-04 19:49 | 33.79588 | 74.99592 | 6992 ft | 190 kts | 316° |
| 2026-05-04 19:49 | 33.80545 | 74.98497 | 6983 ft | 190 kts | 316° |
| 2026-05-04 19:49 | 33.81497 | 74.97400 | 6980 ft | 190 kts | 316° |
| 2026-05-04 19:50 | 33.82449 | 74.96302 | 6986 ft | 189 kts | 315° |
| 2026-05-04 19:50 | 33.83392 | 74.95210 | 6984 ft | 187 kts | 315° |
| 2026-05-04 19:50 | 33.84325 | 74.94127 | 6980 ft | 185 kts | 315° |
| 2026-05-04 19:50 | 33.85253 | 74.93049 | 6982 ft | 185 kts | 315° |
| 2026-05-04 19:51 | 33.86157 | 74.91998 | 6982 ft | 184 kts | 315° |
| 2026-05-04 19:51 | 33.86963 | 74.91061 | 6983 ft | 183 kts | 315° |
| 2026-05-04 19:52 | 33.87095 | 74.90908 | 6983 ft | 184 kts | 315° |
| 2026-05-04 19:52 | 33.87718 | 74.90184 | 6983 ft | 183 kts | 315° |
| 2026-05-04 19:53 | 33.88635 | 74.89116 | 6981 ft | 183 kts | 315° |
| 2026-05-04 19:53 | 33.89549 | 74.88053 | 6985 ft | 183 kts | 315° |
| 2026-05-04 19:53 | 33.90475 | 74.86981 | 6985 ft | 183 kts | 315° |
| 2026-05-04 19:53 | 33.91391 | 74.85928 | 6981 ft | 179 kts | 315° |
| 2026-05-04 19:54 | 33.92277 | 74.84894 | 6923 ft | 181 kts | 315° |
| 2026-05-04 19:54 | 33.93200 | 74.83797 | 6639 ft | 187 kts | 315° |
| 2026-05-04 19:54 | 33.94129 | 74.82704 | 6391 ft | 185 kts | 316° |
| 2026-05-04 19:54 | 33.95057 | 74.81636 | 6141 ft | 184 kts | 316° |
| 2026-05-04 19:55 | 33.95969 | 74.80579 | 5904 ft | 183 kts | 316° |
| 2026-05-04 19:55 | 33.96896 | 74.79499 | 5657 ft | 183 kts | 316° |
| 2026-05-04 19:55 | 33.97227 | 74.79115 | 5573 ft | 182 kts | 316° |
| 2026-05-04 19:55 | 33.97705 | 74.78555 | 5452 ft | 177 kts | 315° |
| 2026-05-04 19:56 | 33.98356 | 74.77789 | 5448 ft | 123 kts | 320° |
| 2026-05-04 19:56 | 33.98772 | 74.77331 | 5448 ft | 45 kts | 315° |
| 2026-05-04 19:56 | 33.98813 | 74.77282 | 5448 ft | 45 kts | 314° |
| 2026-05-04 19:56 | 33.99000 | 74.77060 | 5448 ft | 43 kts | 315° |
| 2026-05-04 19:57 | 33.99138 | 74.76899 | 5448 ft | 42 kts | 316° |
| 2026-05-04 19:57 | 33.99340 | 74.76661 | 5448 ft | 40 kts | 317° |
| 2026-05-04 19:57 | 33.99538 | 74.76431 | 5448 ft | 34 kts | 317° |
| 2026-05-04 19:57 | 33.99653 | 74.76299 | 5448 ft | 22 kts | 317° |
| 2026-05-04 19:58 | 33.99757 | 74.76182 | 5448 ft | 13 kts | 316° |
| 2026-05-04 19:58 | 33.99816 | 74.76146 | 5448 ft | 12 kts | 5° |
| 2026-05-04 19:58 | 33.99823 | 74.76147 | 5448 ft | 11 kts | 10° |
| 2026-05-04 19:58 | 33.99902 | 74.76164 | 5448 ft | 12 kts | 11° |
| 2026-05-04 19:59 | 33.99983 | 74.76188 | 5448 ft | 12 kts | 14° |
| 2026-05-04 19:59 | 34.00033 | 74.76215 | 5448 ft | 8 kts | 35° |
| 2026-05-04 19:59 | 34.00065 | 74.76240 | 5448 ft | 4 kts | 19° |
| 2026-05-04 19:59 | 34.00090 | 74.76240 | 5448 ft | 7 kts | 354° |
| 2026-05-04 20:00 | 34.00095 | 74.76239 | 5448 ft | 0 kts | 354° |
| 2026-05-04 20:00 | 33.98879 | 74.77201 | 5448 ft | 45 kts | 315° |
| 2026-05-04 20:01 | 34.00095 | 74.76239 | 5448 ft | 0 kts | 354° |
| 2026-05-04 20:01 | 33.96263 | 74.80237 | 5830 ft | 183 kts | 316° |
| 2026-05-04 20:01 | 33.97184 | 74.79165 | 5585 ft | 183 kts | 316° |
| 2026-05-04 20:01 | 33.97808 | 74.78432 | 5448 ft | 173 kts | 315° |